首页
METAR-TAF:

METAR-TAF

机场 :

奧克蘭機場

奧克蘭都會區, 新西兰

纬度: 37-01S, 经度: 174-48E, 海拔: 7米

当前天气观测

该预报发布于45分钟前的21:00 UTC
风速9节,风向西转西南
温度 17°C
湿度 55%
气压 1014 hPa
能见度10公里或以上

METAR: NZAA 122100Z AUTO 25009KT 9999 FEW043/// 17/08 Q1014 NOSIG

时间: 10:45 (21:45 UTC)

预报

该预报发布于4小时和28分钟前的17:17 UTC
预报有效从12日的 18点(UTC)到 13日的 18点(UTC)
风速8节,风向西转西南
能见度10公里或以上
少量云层高于3000英尺
多云层高于5000英尺
成为
从 12日的 22点(UTC)到 13日的 00点(UTC)
风速12节,风向西北
成为
从 13日的 06点(UTC)到 13日的 08点(UTC)
风速5节,风向
成为
从 13日的 12点(UTC)到 13日的 14点(UTC)
风速15节,风向北转东北,有时为25节阵风

TAF: NZAA 121717Z 1218/1318 25008KT 9999 FEW030 BKN050 BECMG 1222/1300 31012KT BECMG 1306/1308 01005KT BECMG 1312/1314 02015G25KT

超过4000个机场的气象观测和天气预报(METAR&TAF报告)。

可查询的气象台以黄色和红色小点在地图上表示。

将鼠标移到小点上方,可查看气象台名称。

然后点击查看天气观测和预报。

如需切换地图:点击带黑十字的绿色按钮放大地图;点击带横线的绿色按钮缩小地图;或者点击绿色箭头查看邻近地区的地图。


METAR-TAF: